createdAt,value
2016-10-25T00:00:31.858Z,0
2016-10-25T00:01:31.576Z,0
2016-10-25T00:02:46.519Z,0
2016-10-25T00:03:46.539Z,0
2016-10-25T00:04:46.559Z,0
2016-10-25T00:05:31.901Z,0
2016-10-25T00:06:31.976Z,0
2016-10-25T00:07:31.692Z,0
2016-10-25T00:08:31.718Z,0
2016-10-25T00:09:31.744Z,0
2016-10-25T00:10:31.769Z,0
2016-10-25T00:11:31.780Z,0
2016-10-25T00:12:46.729Z,0
2016-10-25T00:13:31.823Z,0
2016-10-25T00:14:31.871Z,0
2016-10-25T00:15:32.367Z,0
2016-10-25T00:17:31.905Z,0
2016-10-25T00:18:31.935Z,0
2016-10-25T00:19:46.876Z,0
2016-10-25T00:20:31.978Z,0
2016-10-25T00:21:31.985Z,0
2016-10-25T00:22:32.016Z,0
2016-10-25T00:23:46.962Z,0
2016-10-25T00:24:32.054Z,0
2016-10-25T00:25:32.083Z,0
2016-10-25T00:26:32.099Z,0
2016-10-25T00:28:32.141Z,0
2016-10-25T00:29:32.159Z,0
2016-10-25T00:30:32.183Z,0
2016-10-25T00:31:32.198Z,0
2016-10-25T00:32:47.144Z,0
2016-10-25T00:33:47.167Z,0
2016-10-25T00:34:32.279Z,0
2016-10-25T00:35:47.461Z,0
2016-10-25T00:36:32.310Z,0
2016-10-25T00:37:32.341Z,0
2016-10-25T00:38:32.365Z,0
2016-10-25T00:39:32.381Z,0
2016-10-25T00:41:32.442Z,0
2016-10-25T00:42:32.734Z,0
2016-10-25T00:43:32.461Z,0
2016-10-25T00:44:32.480Z,0
2016-10-25T00:45:32.496Z,0
2016-10-25T00:46:47.747Z,0
2016-10-25T00:47:32.541Z,0
2016-10-25T00:48:32.852Z,0
2016-10-25T00:49:32.581Z,0
2016-10-25T00:50:32.611Z,0
2016-10-25T00:51:47.572Z,0
2016-10-25T00:52:32.650Z,0
2016-10-25T00:53:32.671Z,0
2016-10-25T00:54:32.689Z,0
2016-10-25T00:55:47.636Z,0
2016-10-25T00:56:32.732Z,0
2016-10-25T00:57:47.681Z,0
2016-10-25T00:58:32.775Z,0
2016-10-25T00:59:32.788Z,0
2016-10-25T01:00:32.824Z,0
2016-10-25T01:01:32.831Z,0
2016-10-25T01:02:47.780Z,0
2016-10-25T01:03:47.794Z,0
2016-10-25T01:04:32.902Z,0
2016-10-25T01:05:32.922Z,0
2016-10-25T01:06:32.939Z,0
2016-10-25T01:07:47.883Z,0
2016-10-25T01:08:32.981Z,0
2016-10-25T01:09:33.007Z,0
2016-10-25T01:10:33.024Z,0
2016-10-25T01:11:33.047Z,0
2016-10-25T01:12:33.064Z,0
2016-10-25T01:13:33.076Z,0
2016-10-25T01:14:33.102Z,0
2016-10-25T01:15:33.122Z,0
2016-10-25T01:16:33.148Z,0
2016-10-25T01:17:33.506Z,0
2016-10-25T01:18:48.108Z,0
2016-10-25T01:19:33.206Z,0
2016-10-25T01:20:33.478Z,0
2016-10-25T01:21:33.503Z,0
2016-10-25T01:22:33.276Z,0
2016-10-25T01:23:48.222Z,0
2016-10-25T01:24:48.238Z,0
2016-10-25T01:26:33.360Z,0
2016-10-25T01:27:33.385Z,0
2016-10-25T01:28:33.399Z,0
2016-10-25T01:29:33.412Z,0
2016-10-25T01:30:33.687Z,0
2016-10-25T01:31:33.462Z,0
2016-10-25T01:32:33.484Z,0
2016-10-25T01:33:33.506Z,0
2016-10-25T01:34:33.516Z,0
2016-10-25T01:35:33.549Z,0
2016-10-25T01:36:48.485Z,0
2016-10-25T01:37:33.637Z,0
2016-10-25T01:38:33.607Z,0
2016-10-25T01:39:48.549Z,0
2016-10-25T01:40:33.640Z,0
2016-10-25T01:41:33.667Z,0
2016-10-25T01:42:48.645Z,0
2016-10-25T01:43:33.702Z,0
2016-10-25T01:44:33.727Z,0
2016-10-25T01:45:33.744Z,0
2016-10-25T01:46:48.700Z,0
2016-10-25T01:48:33.815Z,0
2016-10-25T01:49:33.828Z,0
2016-10-25T01:50:33.858Z,0
2016-10-25T01:51:48.799Z,0
2016-10-25T01:52:33.900Z,0
2016-10-25T01:53:34.234Z,0
2016-10-25T01:54:48.890Z,0
2016-10-25T01:55:33.964Z,0
2016-10-25T01:56:48.903Z,0
2016-10-25T01:57:34.001Z,0
2016-10-25T01:58:34.022Z,0
2016-10-25T01:59:34.055Z,0
2016-10-25T02:00:34.358Z,0
2016-10-25T02:01:34.076Z,0
2016-10-25T02:02:34.105Z,0
2016-10-25T02:03:34.119Z,0
2016-10-25T02:04:34.158Z,0
2016-10-25T02:05:34.167Z,0
2016-10-25T02:06:34.473Z,0
2016-10-25T02:09:34.245Z,0
2016-10-25T02:10:34.355Z,0
2016-10-25T02:11:49.712Z,0
2016-10-25T02:13:34.585Z,0
2016-10-25T02:14:49.276Z,0
2016-10-25T02:16:34.405Z,0
2016-10-25T02:17:35.667Z,0
2016-10-25T02:18:34.429Z,0
2016-10-25T02:19:34.459Z,0
2016-10-25T02:21:04.328Z,0
2016-10-25T02:21:34.505Z,0
2016-10-25T02:22:34.526Z,0
2016-10-25T02:23:49.465Z,0
2016-10-25T02:24:49.485Z,0
2016-10-25T02:25:34.583Z,0
2016-10-25T02:26:49.529Z,0
2016-10-25T02:27:34.639Z,0
2016-10-25T02:28:34.651Z,0
2016-10-25T02:29:34.688Z,0
2016-10-25T02:30:34.995Z,0
2016-10-25T02:31:49.631Z,0
2016-10-25T02:32:34.735Z,0
2016-10-25T02:33:34.783Z,0
2016-10-25T02:34:34.777Z,0
2016-10-25T02:35:35.105Z,0
2016-10-25T02:36:34.810Z,0
2016-10-25T02:37:34.842Z,0
2016-10-25T02:38:34.850Z,0
2016-10-25T02:39:35.481Z,0
2016-10-25T02:40:34.903Z,0
2016-10-25T02:41:34.916Z,0
2016-10-25T02:43:04.780Z,0
2016-10-25T02:43:34.956Z,0
2016-10-25T02:44:49.899Z,0
2016-10-25T02:45:35.003Z,0
2016-10-25T02:46:35.032Z,0
2016-10-25T02:47:35.298Z,0
2016-10-25T02:48:35.100Z,0
2016-10-25T02:49:35.090Z,0
2016-10-25T02:50:35.101Z,0
2016-10-25T02:51:35.122Z,0
2016-10-25T02:52:35.161Z,0
2016-10-25T02:53:50.092Z,0
2016-10-25T02:54:35.194Z,0
2016-10-25T02:55:35.215Z,0
2016-10-25T02:56:50.244Z,0
2016-10-25T02:57:35.253Z,0
2016-10-25T02:58:50.220Z,0
2016-10-25T02:59:35.288Z,0
2016-10-25T03:00:35.310Z,0
2016-10-25T03:01:35.329Z,0
2016-10-25T03:02:35.357Z,0
2016-10-25T03:03:50.292Z,0
2016-10-25T03:04:35.396Z,0
2016-10-25T03:05:35.422Z,0
2016-10-25T03:06:35.439Z,0
2016-10-25T03:07:50.385Z,0
2016-10-25T03:08:35.503Z,0
2016-10-25T03:09:35.492Z,0
2016-10-25T03:10:35.515Z,0
2016-10-25T03:11:50.467Z,0
2016-10-25T03:12:35.559Z,0
2016-10-25T03:13:35.583Z,0
2016-10-25T03:14:50.523Z,0
2016-10-25T03:15:35.620Z,0
2016-10-25T03:16:35.637Z,0
2016-10-25T03:17:35.698Z,0
2016-10-25T03:18:35.677Z,0
2016-10-25T03:19:35.715Z,0
2016-10-25T03:20:35.724Z,0
2016-10-25T03:21:35.752Z,0
2016-10-25T03:22:35.766Z,0
2016-10-25T03:23:35.784Z,0
2016-10-25T03:24:36.099Z,0
2016-10-25T03:25:35.824Z,0
2016-10-25T03:26:35.841Z,0
2016-10-25T03:27:50.786Z,0
2016-10-25T03:28:35.890Z,0
2016-10-25T03:29:50.836Z,0
2016-10-25T03:30:35.932Z,0
2016-10-25T03:31:35.955Z,0
2016-10-25T03:32:35.967Z,0
2016-10-25T03:33:35.998Z,0
2016-10-25T03:34:36.021Z,0
2016-10-25T03:35:36.059Z,0
2016-10-25T03:36:36.053Z,0
2016-10-25T03:37:36.084Z,0
2016-10-25T03:38:36.091Z,0
2016-10-25T03:39:36.119Z,0
2016-10-25T03:40:36.136Z,0
2016-10-25T03:41:51.078Z,0
2016-10-25T03:42:36.186Z,0
2016-10-25T03:43:36.207Z,0
2016-10-25T03:44:51.146Z,0
2016-10-25T03:45:36.250Z,0
2016-10-25T03:46:51.180Z,0
2016-10-25T03:47:36.284Z,0
2016-10-25T03:48:36.302Z,0
2016-10-25T03:49:51.246Z,0
2016-10-25T03:50:36.345Z,0
2016-10-25T03:51:36.376Z,0
2016-10-25T03:52:51.304Z,0
2016-10-25T03:53:36.408Z,0
2016-10-25T03:54:51.349Z,0
2016-10-25T03:55:36.447Z,0
2016-10-25T03:56:36.468Z,0
2016-10-25T03:57:51.412Z,0
2016-10-25T03:58:51.431Z,0
2016-10-25T03:59:37.233Z,0
2016-10-25T04:00:36.559Z,0
2016-10-25T04:01:52.493Z,0
2016-10-25T04:03:36.616Z,0
2016-10-25T04:04:36.638Z,0
2016-10-25T04:05:36.652Z,0
2016-10-25T04:07:36.700Z,0
2016-10-25T04:08:36.725Z,0
2016-10-25T04:09:36.733Z,0
2016-10-25T04:10:36.760Z,0
2016-10-25T04:11:51.707Z,0
2016-10-25T04:12:51.722Z,0
2016-10-25T04:13:51.743Z,0
2016-10-25T04:14:36.848Z,0
2016-10-25T04:15:36.871Z,0
2016-10-25T04:16:36.883Z,0
2016-10-25T04:17:51.826Z,0
2016-10-25T04:18:36.923Z,0
2016-10-25T04:19:36.944Z,0
2016-10-25T04:20:36.972Z,0
2016-10-25T04:21:36.982Z,0
2016-10-25T04:22:37.009Z,0
2016-10-25T04:23:37.024Z,0
2016-10-25T04:24:37.053Z,0
2016-10-25T04:25:37.075Z,0
2016-10-25T04:26:37.101Z,0
2016-10-25T04:27:37.153Z,0
2016-10-25T04:28:37.138Z,0
2016-10-25T04:29:37.146Z,0
2016-10-25T04:30:37.170Z,0
2016-10-25T04:31:52.117Z,0
2016-10-25T04:32:37.216Z,0
2016-10-25T04:34:07.088Z,0
2016-10-25T04:35:37.280Z,0
2016-10-25T04:36:37.300Z,0
2016-10-25T04:37:37.327Z,0
2016-10-25T04:38:37.335Z,0
2016-10-25T04:39:37.372Z,0
2016-10-25T04:40:37.388Z,0
2016-10-25T04:41:37.401Z,0
2016-10-25T04:42:52.354Z,0
2016-10-25T04:43:37.451Z,0
2016-10-25T04:44:37.491Z,0
2016-10-25T04:45:37.548Z,0
2016-10-25T04:46:37.557Z,0
2016-10-25T04:48:37.588Z,0
2016-10-25T04:49:52.501Z,0
2016-10-25T04:50:52.550Z,0
2016-10-25T04:51:37.622Z,0
2016-10-25T04:52:37.897Z,0
2016-10-25T04:53:37.659Z,0
2016-10-25T04:54:37.677Z,0
2016-10-25T04:55:37.692Z,0
2016-10-25T04:56:37.716Z,0
2016-10-25T04:57:52.657Z,0
2016-10-25T04:59:53.195Z,0
2016-10-25T05:00:38.048Z,0
2016-10-25T05:01:37.824Z,0
2016-10-25T05:03:37.897Z,0
2016-10-25T05:05:07.727Z,0
2016-10-25T05:05:37.908Z,0
2016-10-25T05:06:37.939Z,0
2016-10-25T05:07:52.872Z,0
2016-10-25T05:08:37.980Z,0
2016-10-25T05:09:37.985Z,0
2016-10-25T05:10:38.004Z,0
2016-10-25T05:11:38.045Z,0
2016-10-25T05:12:38.060Z,0
2016-10-25T05:13:38.105Z,0
2016-10-25T05:14:38.100Z,0
2016-10-25T05:15:38.716Z,0
2016-10-25T05:16:38.141Z,0
2016-10-25T05:17:53.081Z,0
2016-10-25T05:18:38.186Z,0
2016-10-25T05:19:38.200Z,0
2016-10-25T05:20:38.261Z,0
2016-10-25T05:21:38.234Z,0
2016-10-25T05:22:38.267Z,0
2016-10-25T05:23:38.325Z,0
2016-10-25T05:24:53.225Z,0
2016-10-25T05:25:38.315Z,0
2016-10-25T05:26:53.265Z,0
2016-10-25T05:27:38.406Z,0
2016-10-25T05:28:53.310Z,0
2016-10-25T05:29:38.408Z,0
2016-10-25T05:30:38.435Z,0
2016-10-25T05:31:38.443Z,0
2016-10-25T05:32:38.473Z,0
2016-10-25T05:33:38.494Z,0
2016-10-25T05:34:38.525Z,0
2016-10-25T05:35:38.529Z,0
2016-10-25T05:36:53.475Z,0
2016-10-25T05:37:38.581Z,0
2016-10-25T05:38:53.517Z,0
2016-10-25T05:39:38.621Z,0
2016-10-25T05:40:38.635Z,0
2016-10-25T05:41:38.665Z,0
2016-10-25T05:42:38.682Z,0
2016-10-25T05:43:38.701Z,0
2016-10-25T05:44:38.714Z,0
2016-10-25T05:45:53.663Z,0
2016-10-25T05:46:38.760Z,0
2016-10-25T05:47:38.773Z,0
2016-10-25T05:48:38.803Z,0
2016-10-25T05:50:38.846Z,0
2016-10-25T05:51:38.863Z,0
2016-10-25T05:52:53.809Z,0
2016-10-25T05:53:38.903Z,0
2016-10-25T05:54:38.927Z,0
2016-10-25T05:55:38.949Z,0
2016-10-25T05:56:38.976Z,0
2016-10-25T05:57:38.984Z,0
2016-10-25T05:58:39.013Z,0
2016-10-25T05:59:39.043Z,0
2016-10-25T06:01:39.079Z,0
2016-10-25T06:02:39.092Z,0
2016-10-25T06:03:39.120Z,0
2016-10-25T06:04:39.140Z,0
2016-10-25T06:05:54.087Z,0
2016-10-25T06:06:39.190Z,0
2016-10-25T06:07:39.224Z,0
2016-10-25T06:08:54.147Z,0
2016-10-25T06:09:54.158Z,0
2016-10-25T06:10:39.263Z,0
2016-10-25T06:11:39.280Z,0
2016-10-25T06:12:39.328Z,0
2016-10-25T06:13:39.329Z,0
2016-10-25T06:14:39.360Z,0
2016-10-25T06:15:39.404Z,0
2016-10-25T06:16:39.429Z,0
2016-10-25T06:17:39.409Z,0
2016-10-25T06:18:39.439Z,0
2016-10-25T06:19:54.374Z,0
2016-10-25T06:20:39.474Z,0
2016-10-25T06:21:39.482Z,0
2016-10-25T06:22:39.566Z,5
2016-10-25T06:23:54.455Z,5
2016-10-25T06:24:54.471Z,5
2016-10-25T06:25:39.585Z,5
2016-10-25T06:26:39.601Z,5
2016-10-25T06:28:39.647Z,5
2016-10-25T06:29:39.672Z,5
2016-10-25T06:30:39.681Z,5
2016-10-25T06:31:39.710Z,5
2016-10-25T06:32:39.724Z,5
2016-10-25T06:33:39.744Z,5
2016-10-25T06:34:39.762Z,5
2016-10-25T06:35:39.786Z,5
2016-10-25T06:36:39.799Z,5
2016-10-25T06:37:39.816Z,10
2016-10-25T06:39:54.792Z,10
2016-10-25T06:40:39.932Z,10
2016-10-25T06:41:39.918Z,10
2016-10-25T06:42:39.941Z,10
2016-10-25T06:43:39.945Z,10
2016-10-25T06:44:54.897Z,10
2016-10-25T06:45:40.005Z,10
2016-10-25T06:46:40.006Z,10
2016-10-25T06:48:40.059Z,5
2016-10-25T06:49:40.080Z,5
2016-10-25T06:50:40.144Z,5
2016-10-25T06:51:40.119Z,5
2016-10-25T06:52:40.149Z,10
2016-10-25T06:53:55.081Z,10
2016-10-25T06:54:40.183Z,10
2016-10-25T06:55:55.128Z,10
2016-10-25T06:56:40.226Z,10
2016-10-25T06:57:40.239Z,10
2016-10-25T06:58:40.266Z,10
2016-10-25T06:59:55.205Z,10
2016-10-25T07:00:40.314Z,10
2016-10-25T07:01:40.336Z,10
2016-10-25T07:02:40.652Z,10
2016-10-25T07:03:40.366Z,10
2016-10-25T07:04:40.382Z,10
2016-10-25T07:05:55.330Z,10
2016-10-25T07:08:10.297Z,15
2016-10-25T07:08:40.470Z,15
2016-10-25T07:09:40.499Z,15
2016-10-25T07:10:40.518Z,15
2016-10-25T07:11:55.467Z,15
2016-10-25T07:12:40.559Z,15
2016-10-25T07:13:40.630Z,15
2016-10-25T07:14:40.597Z,15
2016-10-25T07:15:40.623Z,15
2016-10-25T07:16:55.559Z,15
2016-10-25T07:17:40.665Z,15
2016-10-25T07:18:40.687Z,15
2016-10-25T07:19:40.700Z,15
2016-10-25T07:20:41.039Z,15
2016-10-25T07:21:55.663Z,15
2016-10-25T07:22:40.760Z,15
2016-10-25T07:23:40.821Z,15
2016-10-25T07:24:40.818Z,15
2016-10-25T07:25:40.831Z,15
2016-10-25T07:26:55.771Z,15
2016-10-25T07:27:55.790Z,15
2016-10-25T07:28:40.902Z,10
2016-10-25T07:29:40.912Z,10
2016-10-25T07:30:40.929Z,10
2016-10-25T07:31:40.958Z,10
2016-10-25T07:32:40.973Z,15
2016-10-25T07:33:41.006Z,15
2016-10-25T07:34:41.047Z,20
2016-10-25T07:35:41.031Z,20
2016-10-25T07:36:41.050Z,20
2016-10-25T07:37:56.001Z,20
2016-10-25T07:38:56.274Z,20
2016-10-25T07:39:41.118Z,20
2016-10-25T07:40:41.147Z,20
2016-10-25T07:41:41.170Z,20
2016-10-25T07:42:41.193Z,20
2016-10-25T07:44:11.049Z,20
2016-10-25T07:44:56.139Z,25
2016-10-25T07:45:41.255Z,25
2016-10-25T07:46:41.297Z,20
2016-10-25T07:47:41.289Z,20
2016-10-25T07:48:41.312Z,20
2016-10-25T07:49:56.251Z,20
2016-10-25T07:50:41.350Z,25
2016-10-25T07:51:41.382Z,25
2016-10-25T07:52:41.458Z,25
2016-10-25T07:53:41.417Z,25
2016-10-25T07:54:41.441Z,30
2016-10-25T07:55:41.459Z,30
2016-10-25T07:56:41.486Z,30
2016-10-25T07:57:41.504Z,30
2016-10-25T07:58:41.528Z,30
2016-10-25T07:59:56.466Z,25
2016-10-25T08:00:41.564Z,25
2016-10-25T08:01:41.587Z,25
2016-10-25T08:02:56.532Z,30
2016-10-25T08:03:41.622Z,30
2016-10-25T08:05:41.665Z,30
2016-10-25T08:06:41.696Z,30
2016-10-25T08:08:41.743Z,30
2016-10-25T08:09:41.761Z,30
2016-10-25T08:10:56.702Z,35
2016-10-25T08:11:56.716Z,40
2016-10-25T08:13:41.840Z,40
2016-10-25T08:14:56.775Z,35
2016-10-25T08:16:41.910Z,30
2016-10-25T08:17:41.921Z,30
2016-10-25T08:18:42.206Z,25
2016-10-25T08:20:41.989Z,25
2016-10-25T08:21:42.008Z,25
2016-10-25T08:22:42.045Z,30
2016-10-25T08:23:42.048Z,30
2016-10-25T08:24:42.079Z,30
2016-10-25T08:25:57.026Z,30
2016-10-25T08:26:42.125Z,30
2016-10-25T08:27:42.167Z,35
2016-10-25T08:28:42.158Z,35
2016-10-25T08:29:57.109Z,40
2016-10-25T08:30:42.504Z,45
2016-10-25T08:31:42.223Z,50
2016-10-25T08:32:42.247Z,60
2016-10-25T08:33:42.267Z,65
2016-10-25T08:34:42.291Z,70
2016-10-25T08:35:42.317Z,75
2016-10-25T08:36:42.345Z,70
2016-10-25T08:37:57.276Z,65
2016-10-25T08:39:42.397Z,50
2016-10-25T08:40:42.412Z,50
2016-10-25T08:41:57.360Z,50
2016-10-25T08:42:42.462Z,50
2016-10-25T08:43:42.485Z,50
2016-10-25T08:44:57.431Z,50
2016-10-25T08:45:42.526Z,50
2016-10-25T08:46:57.466Z,50
2016-10-25T08:47:42.602Z,50
2016-10-25T08:48:42.901Z,50
2016-10-25T08:49:57.534Z,50
2016-10-25T08:50:42.625Z,50
2016-10-25T08:51:42.654Z,50
2016-10-25T08:52:42.676Z,50
2016-10-25T08:53:57.727Z,50
2016-10-25T08:54:57.646Z,50
2016-10-25T08:55:42.985Z,50
2016-10-25T08:57:57.708Z,50
2016-10-25T08:59:12.655Z,50
2016-10-25T08:59:57.747Z,50
2016-10-25T09:00:58.870Z,50
2016-10-25T09:01:42.872Z,50
2016-10-25T09:03:12.738Z,45
2016-10-25T09:03:42.916Z,45
2016-10-25T09:05:42.958Z,50
2016-10-25T09:06:43.001Z,50
2016-10-25T09:07:42.994Z,55
2016-10-25T09:08:43.024Z,55
2016-10-25T09:10:43.058Z,60
2016-10-25T09:11:43.091Z,60
2016-10-25T09:12:43.108Z,65
2016-10-25T09:13:43.447Z,75
2016-10-25T09:14:43.163Z,90
2016-10-25T09:15:58.098Z,90
2016-10-25T09:16:43.206Z,80
2016-10-25T09:18:58.203Z,85
2016-10-25T09:20:43.289Z,75
2016-10-25T09:21:43.307Z,65
2016-10-25T09:22:43.319Z,60
2016-10-25T09:23:43.355Z,55
2016-10-25T09:24:43.385Z,50
2016-10-25T09:25:58.318Z,50
2016-10-25T09:26:43.413Z,50
2016-10-25T09:27:58.362Z,50
2016-10-25T09:28:43.467Z,50
2016-10-25T09:29:58.398Z,50
2016-10-25T09:30:43.506Z,50
2016-10-25T09:31:58.455Z,50
2016-10-25T09:32:58.474Z,50
2016-10-25T09:34:13.412Z,45
2016-10-25T09:34:58.517Z,45
2016-10-25T09:35:43.626Z,50
2016-10-25T09:36:44.027Z,50
2016-10-25T09:37:58.586Z,50
2016-10-25T09:38:43.688Z,50
2016-10-25T09:39:43.712Z,55
2016-10-25T09:40:43.729Z,60
2016-10-25T09:41:43.750Z,65
2016-10-25T09:42:43.805Z,65
2016-10-25T09:43:43.798Z,70
2016-10-25T09:44:43.813Z,80
2016-10-25T09:45:43.844Z,85
2016-10-25T09:46:43.891Z,90
2016-10-25T09:47:43.881Z,95
2016-10-25T09:48:43.899Z,100
2016-10-25T09:49:58.842Z,110
2016-10-25T09:50:43.939Z,120
2016-10-25T09:52:44.018Z,100
2016-10-25T09:53:44.120Z,95
2016-10-25T09:54:44.070Z,80
2016-10-25T09:55:44.057Z,70
2016-10-25T09:57:44.102Z,50
2016-10-25T09:58:44.123Z,50
2016-10-25T09:59:59.069Z,45
2016-10-25T10:00:59.092Z,45
2016-10-25T10:01:44.194Z,45
2016-10-25T10:02:44.210Z,45
2016-10-25T10:04:44.299Z,45
2016-10-25T10:05:44.313Z,40
2016-10-25T10:06:44.303Z,40
2016-10-25T10:07:44.332Z,45
2016-10-25T10:08:44.376Z,50
2016-10-25T10:09:44.363Z,50
2016-10-25T10:10:44.387Z,50
2016-10-25T10:11:44.409Z,45
2016-10-25T10:12:44.426Z,50
2016-10-25T10:13:44.455Z,50
2016-10-25T10:14:44.487Z,50
2016-10-25T10:15:44.501Z,50
2016-10-25T10:16:44.520Z,50
2016-10-25T10:17:44.576Z,50
2016-10-25T10:19:44.601Z,50
2016-10-25T10:20:44.641Z,50
2016-10-25T10:21:59.549Z,45
2016-10-25T10:22:44.651Z,40
2016-10-25T10:23:44.678Z,40
2016-10-25T10:24:44.692Z,40
2016-10-25T10:26:44.740Z,40
2016-10-25T10:27:44.768Z,35
2016-10-25T10:28:44.788Z,40
2016-10-25T10:29:44.812Z,40
2016-10-25T10:30:44.831Z,40
2016-10-25T10:31:59.814Z,35
2016-10-25T10:32:44.874Z,35
2016-10-25T10:33:44.901Z,35
2016-10-25T10:34:59.838Z,35
2016-10-25T10:35:44.945Z,35
2016-10-25T10:36:44.970Z,35
2016-10-25T10:38:14.828Z,35
2016-10-25T10:38:45.002Z,35
2016-10-25T10:39:45.645Z,40
2016-10-25T10:40:45.088Z,35
2016-10-25T10:41:45.072Z,35
2016-10-25T10:42:45.095Z,35
2016-10-25T10:44:45.155Z,40
2016-10-25T10:46:45.183Z,50
2016-10-25T10:49:00.152Z,55
2016-10-25T10:49:45.252Z,50
2016-10-25T10:50:46.372Z,45
2016-10-25T10:52:15.138Z,40
2016-10-25T10:53:00.236Z,40
2016-10-25T10:54:00.260Z,40
2016-10-25T10:54:45.354Z,40
2016-10-25T10:55:45.389Z,45
2016-10-25T10:56:45.396Z,45
2016-10-25T10:57:45.429Z,40
2016-10-25T10:58:45.444Z,40
2016-10-25T10:59:45.468Z,40
2016-10-25T11:00:45.514Z,40
2016-10-25T11:01:45.509Z,40
2016-10-25T11:02:45.534Z,40
2016-10-25T11:04:45.600Z,35
2016-10-25T11:05:47.558Z,40
2016-10-25T11:06:45.622Z,40
2016-10-25T11:07:45.643Z,45
2016-10-25T11:08:45.698Z,45
2016-10-25T11:10:00.616Z,40
2016-10-25T11:10:45.709Z,35
2016-10-25T11:11:45.732Z,30
2016-10-25T11:12:45.763Z,30
2016-10-25T11:13:45.835Z,30
2016-10-25T11:14:45.799Z,30
2016-10-25T11:15:46.772Z,30
2016-10-25T11:16:45.877Z,30
2016-10-25T11:17:45.863Z,30
2016-10-25T11:18:45.878Z,30
2016-10-25T11:20:45.945Z,30
2016-10-25T11:21:45.964Z,35
2016-10-25T11:22:45.975Z,35
2016-10-25T11:23:46.004Z,40
2016-10-25T11:25:00.952Z,45
2016-10-25T11:25:46.040Z,45
2016-10-25T11:26:46.070Z,50
2016-10-25T11:27:46.081Z,50
2016-10-25T11:29:46.119Z,55
2016-10-25T11:30:46.155Z,60
2016-10-25T11:32:01.093Z,65
2016-10-25T11:34:01.290Z,65
2016-10-25T11:34:46.233Z,65
2016-10-25T11:35:46.268Z,65
2016-10-25T11:36:46.326Z,60
2016-10-25T11:37:46.312Z,55
2016-10-25T11:38:46.338Z,50
2016-10-25T11:39:46.354Z,45
2016-10-25T11:40:46.404Z,40
2016-10-25T11:42:01.310Z,35
2016-10-25T11:43:46.438Z,30
2016-10-25T11:44:46.454Z,30
2016-10-25T11:45:46.478Z,25
2016-10-25T11:46:46.504Z,25
2016-10-25T11:47:46.537Z,25
2016-10-25T11:48:46.547Z,25
2016-10-25T11:50:46.601Z,35
2016-10-25T11:51:46.920Z,40
2016-10-25T11:53:46.660Z,45
2016-10-25T11:54:46.672Z,45
2016-10-25T11:55:46.713Z,45
2016-10-25T11:57:01.650Z,45
2016-10-25T11:57:46.749Z,45
2016-10-25T11:58:46.772Z,50
2016-10-25T11:59:46.798Z,50
2016-10-25T12:01:01.734Z,50
2016-10-25T12:01:46.837Z,50
2016-10-25T12:02:46.860Z,50
2016-10-25T12:03:46.916Z,55
2016-10-25T12:04:46.907Z,55
2016-10-25T12:06:01.845Z,60
2016-10-25T12:06:46.953Z,55
2016-10-25T12:07:46.988Z,55
2016-10-25T12:09:47.009Z,50
2016-10-25T12:10:47.043Z,50
2016-10-25T12:11:47.055Z,50
2016-10-25T12:13:02.001Z,45
2016-10-25T12:13:47.353Z,45
2016-10-25T12:14:47.127Z,45
2016-10-25T12:15:47.189Z,40
2016-10-25T12:16:47.173Z,40
2016-10-25T12:17:47.196Z,40
2016-10-25T12:19:47.229Z,40
2016-10-25T12:21:02.193Z,40
2016-10-25T12:22:47.306Z,40
2016-10-25T12:23:47.327Z,40
2016-10-25T12:24:47.345Z,35
2016-10-25T12:26:02.298Z,35
2016-10-25T12:26:47.394Z,35
2016-10-25T12:28:02.385Z,35
2016-10-25T12:29:17.278Z,35
2016-10-25T12:30:02.685Z,35
2016-10-25T12:30:47.485Z,30
2016-10-25T12:31:47.502Z,30
2016-10-25T12:32:47.526Z,25
2016-10-25T12:34:47.561Z,20
2016-10-25T12:35:47.599Z,20
2016-10-25T12:37:47.632Z,20
2016-10-25T12:39:02.578Z,20
2016-10-25T12:40:02.606Z,25
2016-10-25T12:40:47.717Z,25
2016-10-25T12:41:47.726Z,30
2016-10-25T12:42:47.752Z,30
2016-10-25T12:43:47.770Z,30
2016-10-25T12:45:02.722Z,35
2016-10-25T12:45:47.812Z,35
2016-10-25T12:46:47.832Z,35
2016-10-25T12:47:47.862Z,35
2016-10-25T12:48:47.909Z,40
2016-10-25T12:49:47.903Z,40
2016-10-25T12:50:47.927Z,40
2016-10-25T12:51:47.954Z,35
2016-10-25T12:52:47.972Z,35
2016-10-25T12:53:48.292Z,35
2016-10-25T12:55:48.062Z,35
2016-10-25T12:56:48.060Z,35
2016-10-25T12:58:03.001Z,35
2016-10-25T12:58:48.107Z,35
2016-10-25T13:00:03.038Z,35
2016-10-25T13:00:48.146Z,35
2016-10-25T13:02:03.089Z,35
2016-10-25T13:02:48.193Z,35
2016-10-25T13:03:48.518Z,35
2016-10-25T13:04:48.227Z,30
2016-10-25T13:05:48.259Z,30
2016-10-25T13:06:48.286Z,35
2016-10-25T13:07:48.314Z,35
2016-10-25T13:08:48.675Z,40
2016-10-25T13:09:48.338Z,40
2016-10-25T13:10:48.373Z,45
2016-10-25T13:11:48.429Z,45
2016-10-25T13:13:03.327Z,45
2016-10-25T13:13:48.435Z,45
2016-10-25T13:14:48.460Z,45
2016-10-25T13:15:48.521Z,45
2016-10-25T13:16:48.495Z,40
2016-10-25T13:17:48.530Z,40
2016-10-25T13:19:48.571Z,40
2016-10-25T13:20:48.591Z,40
2016-10-25T13:21:48.613Z,35
2016-10-25T13:22:48.627Z,35
2016-10-25T13:23:48.664Z,30
2016-10-25T13:25:03.620Z,25
2016-10-25T13:25:48.742Z,25
2016-10-25T13:27:03.642Z,25
2016-10-25T13:27:48.744Z,25
2016-10-25T13:29:03.678Z,20
2016-10-25T13:29:48.782Z,20
2016-10-25T13:30:48.823Z,15
2016-10-25T13:32:03.905Z,15
2016-10-25T13:32:48.848Z,15
2016-10-25T13:33:48.873Z,15
2016-10-25T13:35:48.918Z,15
2016-10-25T13:36:49.237Z,20
2016-10-25T13:37:48.971Z,20
2016-10-25T13:40:03.921Z,20
2016-10-25T13:40:49.032Z,20
2016-10-25T13:41:49.047Z,20
2016-10-25T13:42:49.299Z,20
2016-10-25T13:43:49.091Z,20
2016-10-25T13:44:49.121Z,20
2016-10-25T13:46:19.010Z,20
2016-10-25T13:46:49.163Z,20
2016-10-25T13:48:04.099Z,20
2016-10-25T13:48:49.239Z,20
2016-10-25T13:50:04.178Z,20
2016-10-25T13:50:49.287Z,20
2016-10-25T13:51:49.277Z,20
2016-10-25T13:52:49.286Z,20
2016-10-25T13:53:49.350Z,25
2016-10-25T13:54:49.333Z,25
2016-10-25T13:55:49.355Z,25
2016-10-25T13:56:49.378Z,25
2016-10-25T13:57:49.400Z,25
2016-10-25T13:59:04.344Z,25
2016-10-25T14:00:04.413Z,25
2016-10-25T14:01:04.380Z,25
2016-10-25T14:01:49.489Z,25
2016-10-25T14:02:49.511Z,25
2016-10-25T14:04:04.441Z,20
2016-10-25T14:04:49.569Z,20
2016-10-25T14:05:49.566Z,20
2016-10-25T14:06:49.899Z,20
2016-10-25T14:07:49.622Z,20
2016-10-25T14:08:49.637Z,20
2016-10-25T14:09:49.670Z,15
2016-10-25T14:10:49.717Z,15
2016-10-25T14:11:49.691Z,15
2016-10-25T14:12:49.721Z,15
2016-10-25T14:13:49.741Z,15
2016-10-25T14:15:04.692Z,15
2016-10-25T14:15:49.798Z,15
2016-10-25T14:16:49.821Z,15
2016-10-25T14:17:49.833Z,15
2016-10-25T14:18:49.861Z,15
2016-10-25T14:20:19.722Z,10
2016-10-25T14:20:49.905Z,10
2016-10-25T14:21:49.917Z,10
2016-10-25T14:22:49.949Z,10
2016-10-25T14:23:49.985Z,10
2016-10-25T14:24:49.988Z,10
2016-10-25T14:25:50.016Z,10
2016-10-25T14:26:50.041Z,10
2016-10-25T14:27:50.510Z,10
2016-10-25T14:28:50.081Z,10
2016-10-25T14:29:50.093Z,10
2016-10-25T14:31:05.047Z,10
2016-10-25T14:32:05.064Z,10
2016-10-25T14:32:50.211Z,10
2016-10-25T14:33:50.180Z,10
2016-10-25T14:35:05.130Z,10
2016-10-25T14:36:05.153Z,10
2016-10-25T14:36:50.250Z,10
2016-10-25T14:37:50.273Z,10
2016-10-25T14:39:05.217Z,10
2016-10-25T14:39:50.330Z,10
2016-10-25T14:41:50.355Z,10
2016-10-25T14:43:50.398Z,10
2016-10-25T14:45:50.444Z,10
2016-10-25T14:46:50.461Z,10
2016-10-25T14:47:50.493Z,10
2016-10-25T14:48:50.516Z,10
2016-10-25T14:49:50.535Z,10
2016-10-25T14:50:50.552Z,10
2016-10-25T14:51:50.574Z,10
2016-10-25T14:53:05.523Z,10
2016-10-25T14:53:50.645Z,10
2016-10-25T14:54:50.638Z,10
2016-10-25T14:55:50.668Z,10
2016-10-25T14:56:50.683Z,10
2016-10-25T14:57:50.710Z,10
2016-10-25T14:58:50.742Z,10
2016-10-25T14:59:50.996Z,10
2016-10-25T15:00:50.777Z,10
2016-10-25T15:01:50.790Z,10
2016-10-25T15:02:50.826Z,10
2016-10-25T15:04:05.762Z,10
2016-10-25T15:04:50.867Z,10
2016-10-25T15:05:50.885Z,10
2016-10-25T15:07:05.831Z,10
2016-10-25T15:07:50.928Z,10
2016-10-25T15:08:50.949Z,10
2016-10-25T15:09:50.974Z,10
2016-10-25T15:11:05.914Z,10
2016-10-25T15:11:51.012Z,10
2016-10-25T15:13:05.955Z,5
2016-10-25T15:13:51.050Z,5
2016-10-25T15:14:51.069Z,5
2016-10-25T15:15:51.090Z,5
2016-10-25T15:17:51.142Z,5
2016-10-25T15:18:51.159Z,5
2016-10-25T15:19:51.188Z,5
2016-10-25T15:20:51.207Z,5
2016-10-25T15:21:51.262Z,5
2016-10-25T15:23:06.166Z,5
2016-10-25T15:24:51.289Z,5
2016-10-25T15:25:51.324Z,5
2016-10-25T15:26:51.338Z,5
2016-10-25T15:27:51.371Z,5
2016-10-25T15:29:51.401Z,0
2016-10-25T15:30:51.436Z,0
2016-10-25T15:32:06.372Z,0